Carrbridge, United Kingdom
Current Conditions -  °F | °C
As of 9:50 AM on Friday 28 Nov 2014 (Local Time) from EGPE Reporting Station
Moderate Fog Moderate Fog  
Wind Chill: 43°   Ceiling: Unl
Heat Index: 43°   Visibility: 0.06mi
Dew Point: 43°   Wind: 2mph
Humidity: 100%   Direction: 260°W
Pressure: 29.8"   Gusts: NA
Location:  57.28°N, 3.81°W
Report Text: EGPE 280950Z 26002KT 0100 R05/0325 FG VV/// 06/06 Q1009
Loading
Personal Weather Stations






























Interactive Weather Map New forecast layout! Learn more

10-Day Weather Forecast

Advertisements
Track Severe Weather on mobile